Time;durP1;ratioP1;P1;durP2;ratioP2;P2;SDS_P1;SDS_P2;PMS_P1;PMS_P2;Temp;Humidity;BMP_temperature;BMP_pressure;BME280_temperature;BME280_humidity;BME280_pressure;Samples;Min_cycle;Max_cycle;Signal;HPM_P1;HPM_P2
2023/08/19 00:01:29;;;;;;;9.80;4.60;;;20.70;99.90;;;;;;491616;241;28920;-74
2023/08/19 00:03:31;;;;;;;7.73;4.10;;;20.60;99.90;;;;;;491596;241;28801;-74
2023/08/19 00:05:32;;;;;;;19.60;9.00;;;20.50;99.90;;;;;;491612;241;28924;-73
2023/08/19 00:07:33;;;;;;;104.80;35.00;;;20.50;99.90;;;;;;491608;241;28830;-74
2023/08/19 00:09:37;;;;;;;89.63;32.70;;;20.40;99.90;;;;;;491598;242;29267;-75
2023/08/19 00:11:36;;;;;;;41.53;17.70;;;20.40;99.90;;;;;;491485;241;29350;-74
2023/08/19 00:13:37;;;;;;;32.17;14.97;;;20.30;99.90;;;;;;491600;242;28806;-75
2023/08/19 00:15:38;;;;;;;36.73;16.13;;;20.30;99.90;;;;;;491609;241;28816;-75
2023/08/19 00:17:40;;;;;;;27.20;13.73;;;20.20;99.90;;;;;;491611;241;28723;-75
2023/08/19 00:19:41;;;;;;;23.90;10.80;;;20.20;99.90;;;;;;491610;241;28815;-75
2023/08/19 00:21:42;;;;;;;19.83;10.47;;;20.20;99.90;;;;;;491604;242;28825;-75
2023/08/19 00:23:43;;;;;;;17.80;9.77;;;20.20;99.90;;;;;;491608;241;29241;-76
2023/08/19 00:25:45;;;;;;;17.63;8.63;;;20.20;99.90;;;;;;491591;241;29352;-74
2023/08/19 00:27:46;;;;;;;15.60;8.53;;;20.20;99.90;;;;;;491606;241;28877;-74
2023/08/19 00:29:50;;;;;;;10.70;7.37;;;20.20;99.90;;;;;;490302;242;28824;-75
2023/08/19 00:31:51;;;;;;;13.90;6.50;;;20.20;99.90;;;;;;491532;238;29389;-74
2023/08/19 00:33:52;;;;;;;11.70;5.87;;;20.20;99.90;;;;;;491604;242;29269;-74
2023/08/19 00:35:54;;;;;;;8.33;4.60;;;20.20;99.90;;;;;;491613;241;29290;-75
2023/08/19 00:37:55;;;;;;;5.83;4.47;;;20.20;99.90;;;;;;491602;241;28828;-74
2023/08/19 00:39:56;;;;;;;6.93;4.33;;;20.20;99.90;;;;;;491608;242;28928;-75
2023/08/19 00:41:57;;;;;;;11.57;6.60;;;20.20;99.90;;;;;;491600;241;28884;-74
2023/08/19 00:43:59;;;;;;;12.77;5.97;;;20.20;99.90;;;;;;491603;241;28808;-76
2023/08/19 00:46:00;;;;;;;10.20;5.60;;;20.10;99.90;;;;;;491611;241;28902;-75
2023/08/19 00:48:02;;;;;;;8.87;5.33;;;20.10;99.90;;;;;;491590;241;28847;-75
2023/08/19 00:50:04;;;;;;;10.87;5.63;;;20.00;99.90;;;;;;491524;242;28820;-74
2023/08/19 00:52:04;;;;;;;8.63;5.27;;;20.00;99.90;;;;;;491538;242;29168;-75
2023/08/19 00:54:05;;;;;;;8.57;4.90;;;20.00;99.90;;;;;;491593;241;29340;-74
2023/08/19 00:56:06;;;;;;;12.50;4.70;;;20.00;99.90;;;;;;491611;241;29237;-74
2023/08/19 00:58:07;;;;;;;5.20;4.40;;;20.00;99.90;;;;;;491605;241;29351;-76
2023/08/19 01:00:09;;;;;;;6.90;4.20;;;19.90;99.90;;;;;;491598;241;28819;-75
2023/08/19 01:02:10;;;;;;;5.90;4.23;;;19.90;99.90;;;;;;491597;241;28816;-75
2023/08/19 01:04:11;;;;;;;5.67;4.00;;;19.90;99.90;;;;;;491600;241;28887;-74
2023/08/19 01:06:12;;;;;;;5.50;4.30;;;19.90;99.90;;;;;;491604;241;28811;-75
2023/08/19 01:08:14;;;;;;;10.47;5.80;;;19.90;99.90;;;;;;491597;242;28910;-77
2023/08/19 01:10:15;;;;;;;6.57;4.83;;;19.90;99.90;;;;;;491598;241;28823;-74
2023/08/19 01:12:16;;;;;;;5.20;4.70;;;19.80;99.90;;;;;;491588;242;28844;-75
2023/08/19 01:14:17;;;;;;;8.93;4.63;;;19.70;99.90;;;;;;491606;241;28811;-75
2023/08/19 01:16:19;;;;;;;6.10;3.67;;;19.70;99.90;;;;;;491605;241;29288;-76
2023/08/19 01:18:20;;;;;;;5.50;4.10;;;19.70;99.90;;;;;;491583;241;29330;-75
2023/08/19 01:20:21;;;;;;;7.97;4.63;;;19.70;99.90;;;;;;491601;241;29273;-74
2023/08/19 01:22:22;;;;;;;6.27;4.60;;;19.70;99.90;;;;;;491596;241;29273;-74
2023/08/19 01:24:24;;;;;;;5.00;4.20;;;19.70;99.90;;;;;;491616;241;28900;-74
2023/08/19 01:26:25;;;;;;;8.13;4.43;;;19.60;99.90;;;;;;491611;241;28827;-74
2023/08/19 01:28:26;;;;;;;8.27;4.40;;;19.60;99.90;;;;;;491598;241;28904;-74
2023/08/19 01:30:30;;;;;;;8.13;4.50;;;19.60;99.90;;;;;;491594;241;28817;-74
2023/08/19 01:32:29;;;;;;;7.53;4.40;;;19.50;99.90;;;;;;491449;241;28849;-74
2023/08/19 01:34:30;;;;;;;5.67;3.70;;;19.50;99.90;;;;;;491594;241;28824;-73
2023/08/19 01:36:32;;;;;;;6.13;3.50;;;19.50;99.90;;;;;;491599;241;28902;-75
2023/08/19 01:38:32;;;;;;;6.90;4.17;;;19.50;99.90;;;;;;491519;241;29262;-74
2023/08/19 01:40:34;;;;;;;8.03;4.67;;;19.50;99.90;;;;;;491602;241;29323;-75
2023/08/19 01:42:35;;;;;;;7.47;4.30;;;19.50;99.90;;;;;;491592;241;29351;-74
2023/08/19 01:44:36;;;;;;;9.70;4.20;;;19.40;99.90;;;;;;491600;241;29280;-74
2023/08/19 01:46:37;;;;;;;6.20;4.63;;;19.40;99.90;;;;;;491573;242;28844;-74
2023/08/19 01:48:39;;;;;;;9.47;4.07;;;19.40;99.90;;;;;;491603;241;28820;-76
2023/08/19 01:50:40;;;;;;;7.93;4.90;;;19.30;99.90;;;;;;491600;241;28903;-74
2023/08/19 01:52:41;;;;;;;8.50;5.00;;;19.30;99.90;;;;;;491590;241;28823;-75
2023/08/19 01:54:42;;;;;;;6.13;4.50;;;19.30;99.90;;;;;;491593;241;28832;-74
2023/08/19 01:56:44;;;;;;;7.83;4.87;;;19.20;99.90;;;;;;491597;241;28816;-75
2023/08/19 01:58:45;;;;;;;10.03;4.87;;;19.10;99.90;;;;;;491598;241;28801;-74
2023/08/19 02:00:46;;;;;;;5.23;4.50;;;19.20;99.90;;;;;;491592;241;29289;-75
2023/08/19 02:02:47;;;;;;;8.47;5.13;;;19.10;99.90;;;;;;491591;241;29267;-73
2023/08/19 02:04:49;;;;;;;10.30;4.77;;;19.10;99.90;;;;;;491602;241;29287;-74
2023/08/19 02:06:50;;;;;;;6.07;4.10;;;19.10;99.90;;;;;;491593;241;28888;-76
2023/08/19 02:08:51;;;;;;;6.03;4.40;;;19.10;99.90;;;;;;491623;241;28931;-74
2023/08/19 02:10:52;;;;;;;6.07;4.23;;;19.20;99.90;;;;;;491634;241;28901;-75
2023/08/19 02:12:54;;;;;;;9.03;4.60;;;19.20;99.90;;;;;;491618;241;28832;-75
2023/08/19 02:14:55;;;;;;;7.40;4.37;;;19.20;99.90;;;;;;491623;241;28833;-75
2023/08/19 02:16:56;;;;;;;6.43;4.13;;;19.20;99.90;;;;;;491629;241;28824;-75
2023/08/19 02:18:57;;;;;;;5.20;4.70;;;19.10;99.90;;;;;;491626;241;28824;-73
2023/08/19 02:20:59;;;;;;;10.23;4.60;;;19.10;99.90;;;;;;491621;242;29290;-73
2023/08/19 02:23:01;;;;;;;5.93;4.50;;;19.10;99.90;;;;;;491610;241;29268;-72
2023/08/19 02:25:01;;;;;;;9.80;3.90;;;19.10;99.90;;;;;;491587;241;29286;-75
2023/08/19 02:27:03;;;;;;;9.50;4.33;;;19.10;99.90;;;;;;491624;241;28832;-72
2023/08/19 02:29:04;;;;;;;5.97;4.00;;;19.00;99.90;;;;;;491619;241;28819;-74
2023/08/19 02:31:05;;;;;;;5.77;4.70;;;19.00;99.90;;;;;;491621;241;28899;-74
2023/08/19 02:33:06;;;;;;;7.90;3.97;;;19.00;99.90;;;;;;491616;241;28829;-75
2023/08/19 02:35:08;;;;;;;8.60;4.30;;;19.00;99.90;;;;;;491632;241;28818;-75
2023/08/19 02:37:13;;;;;;;13.93;4.90;;;19.00;99.90;;;;;;491616;241;28833;-73
2023/08/19 02:39:10;;;;;;;7.57;4.80;;;19.00;99.90;;;;;;491388;241;28840;-73
2023/08/19 02:41:11;;;;;;;9.67;4.87;;;18.90;99.90;;;;;;491611;241;28848;-74
2023/08/19 02:43:12;;;;;;;9.70;5.00;;;18.90;99.90;;;;;;491667;242;28919;-73
2023/08/19 02:45:14;;;;;;;5.67;4.07;;;19.00;99.90;;;;;;491624;241;29341;-74
2023/08/19 02:47:15;;;;;;;4.70;4.30;;;18.90;99.90;;;;;;491604;241;29366;-75
2023/08/19 02:49:16;;;;;;;6.20;3.93;;;19.00;99.90;;;;;;491617;241;29337;-74
2023/08/19 02:51:18;;;;;;;9.93;4.70;;;19.00;99.90;;;;;;491618;242;28935;-75
2023/08/19 02:53:19;;;;;;;5.23;4.73;;;19.10;99.90;;;;;;491614;241;28832;-73
2023/08/19 02:55:20;;;;;;;5.87;4.93;;;19.10;99.90;;;;;;491615;241;28863;-75
2023/08/19 02:57:21;;;;;;;6.63;4.53;;;19.10;99.90;;;;;;491629;241;28821;-74
2023/08/19 02:59:23;;;;;;;5.43;4.03;;;19.20;99.90;;;;;;491620;241;28815;-75
2023/08/19 03:01:24;;;;;;;5.60;4.80;;;19.10;99.90;;;;;;491630;241;28819;-74
2023/08/19 03:03:27;;;;;;;6.03;4.53;;;19.10;99.90;;;;;;491587;241;28818;-75
2023/08/19 03:05:27;;;;;;;6.33;4.23;;;19.10;99.90;;;;;;491600;241;28906;-74
2023/08/19 03:07:29;;;;;;;5.97;4.30;;;19.10;99.90;;;;;;491623;241;28844;-75
2023/08/19 03:09:30;;;;;;;5.40;3.87;;;19.10;99.90;;;;;;491613;241;28802;-73
2023/08/19 03:11:31;;;;;;;4.70;3.80;;;19.10;99.90;;;;;;491622;242;28834;-74
2023/08/19 03:13:33;;;;;;;8.00;4.70;;;19.10;99.90;;;;;;491615;241;28827;-75
2023/08/19 03:15:34;;;;;;;4.87;4.47;;;19.00;99.90;;;;;;491538;241;29229;-74
2023/08/19 03:17:35;;;;;;;7.03;4.70;;;19.00;99.90;;;;;;491631;241;29366;-74
2023/08/19 03:19:36;;;;;;;5.77;4.13;;;19.00;99.90;;;;;;491616;241;29300;-74
2023/08/19 03:21:37;;;;;;;7.57;4.27;;;18.90;99.90;;;;;;491611;241;29364;-73
2023/08/19 03:23:39;;;;;;;5.40;4.30;;;18.90;99.90;;;;;;491624;241;28728;-75
2023/08/19 03:25:40;;;;;;;6.77;4.17;;;18.80;99.90;;;;;;491619;241;28810;-74
2023/08/19 03:27:41;;;;;;;7.13;5.00;;;18.80;99.90;;;;;;491615;241;28828;-77
2023/08/19 03:29:42;;;;;;;6.13;5.00;;;18.70;99.90;;;;;;491608;241;28813;-74
2023/08/19 03:31:44;;;;;;;9.63;5.30;;;18.60;99.90;;;;;;491610;241;28726;-74
2023/08/19 03:33:45;;;;;;;7.13;4.60;;;18.60;99.90;;;;;;491624;241;28849;-74
2023/08/19 03:35:46;;;;;;;7.60;5.20;;;18.60;99.90;;;;;;491618;242;28736;-74
2023/08/19 03:37:47;;;;;;;11.10;5.33;;;18.60;99.90;;;;;;491612;242;28900;-74
2023/08/19 03:39:49;;;;;;;7.33;5.40;;;18.50;99.90;;;;;;491622;241;29191;-74
2023/08/19 03:41:50;;;;;;;10.23;5.87;;;18.50;99.90;;;;;;491613;242;29269;-75
2023/08/19 03:43:51;;;;;;;7.03;5.23;;;18.40;99.90;;;;;;491608;241;29376;-74
2023/08/19 03:45:52;;;;;;;10.03;5.40;;;18.40;99.90;;;;;;491619;241;29288;-74
2023/08/19 03:47:54;;;;;;;13.33;5.57;;;18.40;99.90;;;;;;491623;241;28834;-75
2023/08/19 03:49:55;;;;;;;9.60;5.10;;;18.40;99.90;;;;;;491619;241;28837;-74
2023/08/19 03:51:56;;;;;;;7.00;4.67;;;18.40;99.90;;;;;;491609;241;28849;-74
2023/08/19 03:53:57;;;;;;;7.83;4.80;;;18.50;99.90;;;;;;491616;241;28900;-74
2023/08/19 03:55:59;;;;;;;8.80;4.77;;;18.50;99.90;;;;;;491614;241;28832;-74
2023/08/19 03:58:00;;;;;;;7.90;4.50;;;18.50;99.90;;;;;;491610;241;28828;-73
2023/08/19 04:00:02;;;;;;;8.10;4.70;;;18.50;99.90;;;;;;491604;241;28849;-75
2023/08/19 04:02:02;;;;;;;8.90;4.87;;;18.50;99.90;;;;;;491582;241;28927;-74
2023/08/19 04:04:04;;;;;;;5.63;4.77;;;18.50;99.90;;;;;;491596;241;29315;-74
2023/08/19 04:06:05;;;;;;;6.73;4.60;;;18.50;99.90;;;;;;491610;241;29301;-74
2023/08/19 04:08:06;;;;;;;5.50;4.97;;;18.40;99.90;;;;;;491598;242;29369;-74
2023/08/19 04:10:08;;;;;;;7.17;4.67;;;18.50;99.90;;;;;;491608;241;28815;-74
2023/08/19 04:12:09;;;;;;;6.73;4.80;;;18.50;99.90;;;;;;491669;241;28805;-73
2023/08/19 04:14:10;;;;;;;6.37;5.20;;;18.40;99.90;;;;;;491605;242;28815;-75
2023/08/19 04:16:11;;;;;;;5.13;4.63;;;18.40;99.90;;;;;;491630;241;28930;-73
2023/08/19 04:18:12;;;;;;;5.13;4.63;;;18.40;99.90;;;;;;491619;241;28923;-75
2023/08/19 04:20:14;;;;;;;7.50;4.80;;;18.40;99.90;;;;;;491605;242;28823;-74
2023/08/19 04:22:15;;;;;;;5.53;4.40;;;18.40;99.90;;;;;;491610;241;28908;-75
2023/08/19 04:24:16;;;;;;;6.83;4.40;;;18.40;99.90;;;;;;491601;241;28905;-75
2023/08/19 04:26:17;;;;;;;7.33;4.33;;;18.40;99.90;;;;;;491617;241;28829;-73
2023/08/19 04:28:19;;;;;;;8.63;4.60;;;18.40;99.90;;;;;;491608;241;29337;-75
2023/08/19 04:30:20;;;;;;;7.83;5.00;;;18.40;99.90;;;;;;491602;242;29328;-75
2023/08/19 04:32:21;;;;;;;6.40;4.50;;;18.30;99.90;;;;;;491607;241;29275;-74
2023/08/19 04:34:22;;;;;;;6.17;4.67;;;18.30;99.90;;;;;;491386;241;28819;-73
2023/08/19 04:36:24;;;;;;;7.17;4.27;;;18.30;99.90;;;;;;485120;244;28718;-75
2023/08/19 04:38:25;;;;;;;6.27;4.40;;;18.40;99.90;;;;;;485102;244;28730;-75
2023/08/19 04:40:26;;;;;;;4.80;4.27;;;18.40;99.90;;;;;;485102;244;28711;-74
2023/08/19 04:42:27;;;;;;;5.40;4.43;;;18.40;99.90;;;;;;485099;244;29343;-75
2023/08/19 04:44:29;;;;;;;5.00;4.50;;;18.40;99.90;;;;;;485024;244;28717;-76
2023/08/19 04:46:31;;;;;;;6.03;4.70;;;18.30;99.90;;;;;;485056;244;28774;-75
2023/08/19 04:48:32;;;;;;;5.00;4.50;;;18.40;99.90;;;;;;485083;244;28719;-75
2023/08/19 04:50:32;;;;;;;10.10;4.67;;;18.40;99.90;;;;;;485081;244;28708;-74
2023/08/19 04:52:34;;;;;;;4.93;4.20;;;18.40;99.90;;;;;;485116;244;29275;-72
2023/08/19 04:54:35;;;;;;;6.40;4.50;;;18.50;99.90;;;;;;485088;244;29168;-75
2023/08/19 04:56:36;;;;;;;7.93;4.30;;;18.40;99.90;;;;;;485114;244;29287;-74
2023/08/19 04:58:37;;;;;;;8.43;4.93;;;18.50;99.90;;;;;;485114;244;28716;-75
2023/08/19 05:00:39;;;;;;;14.03;5.17;;;18.60;99.90;;;;;;485105;244;28726;-74
2023/08/19 05:02:40;;;;;;;7.47;4.87;;;18.60;99.90;;;;;;485111;244;28713;-74
2023/08/19 05:04:41;;;;;;;7.10;4.40;;;18.60;99.90;;;;;;485103;244;28728;-76
2023/08/19 05:06:42;;;;;;;4.63;4.23;;;18.60;99.90;;;;;;485094;244;28793;-75
2023/08/19 05:08:44;;;;;;;11.70;4.80;;;18.60;99.90;;;;;;485103;244;28706;-74
2023/08/19 05:10:45;;;;;;;9.83;5.43;;;18.60;99.90;;;;;;485107;244;28777;-74
2023/08/19 05:12:46;;;;;;;6.43;4.67;;;18.70;99.90;;;;;;485077;244;28714;-73
2023/08/19 05:14:47;;;;;;;7.90;4.90;;;18.70;99.90;;;;;;485102;244;29162;-74
2023/08/19 05:16:49;;;;;;;6.63;4.67;;;18.70;99.90;;;;;;485101;244;29194;-74
2023/08/19 05:18:50;;;;;;;6.57;4.50;;;18.70;99.90;;;;;;485072;244;29174;-75
2023/08/19 05:20:51;;;;;;;6.37;4.23;;;18.70;99.90;;;;;;485014;245;29298;-74
2023/08/19 05:22:52;;;;;;;6.37;4.13;;;18.70;99.90;;;;;;485104;244;28710;-74
2023/08/19 05:24:54;;;;;;;4.87;4.43;;;18.70;99.90;;;;;;485086;244;28716;-73
2023/08/19 05:26:55;;;;;;;7.20;4.80;;;18.70;99.90;;;;;;485114;244;28808;-74
2023/08/19 05:28:56;;;;;;;11.97;4.70;;;18.80;99.90;;;;;;485100;244;28715;-75
2023/08/19 05:30:58;;;;;;;14.00;4.53;;;18.80;99.90;;;;;;485113;244;28802;-75
2023/08/19 05:32:59;;;;;;;7.07;5.00;;;18.90;99.90;;;;;;485107;244;28718;-75
2023/08/19 05:35:00;;;;;;;7.67;4.70;;;18.90;99.90;;;;;;485101;244;28837;-75
2023/08/19 05:37:01;;;;;;;6.57;4.20;;;19.00;99.90;;;;;;485220;242;28782;-75
2023/08/19 05:39:03;;;;;;;7.37;5.13;;;19.10;99.90;;;;;;484669;243;29297;-74
2023/08/19 05:41:04;;;;;;;6.00;4.50;;;19.10;99.90;;;;;;484650;245;29302;-75
2023/08/19 05:43:05;;;;;;;6.10;4.80;;;19.20;99.90;;;;;;484680;245;29255;-75
2023/08/19 05:45:06;;;;;;;7.53;4.90;;;19.30;99.90;;;;;;485103;245;28702;-74
2023/08/19 05:47:09;;;;;;;8.00;4.33;;;19.40;99.90;;;;;;485130;244;28711;-75
2023/08/19 05:49:09;;;;;;;5.20;4.70;;;19.60;99.90;;;;;;485057;245;28720;-74
2023/08/19 05:51:10;;;;;;;7.40;4.63;;;19.60;99.90;;;;;;485115;244;28720;-75
2023/08/19 05:53:11;;;;;;;9.33;5.07;;;19.80;99.90;;;;;;485117;244;28727;-75
2023/08/19 05:55:12;;;;;;;11.53;5.30;;;19.90;99.90;;;;;;485124;244;28731;-74
2023/08/19 05:57:14;;;;;;;5.87;4.47;;;19.90;99.90;;;;;;485131;244;28793;-74
2023/08/19 05:59:15;;;;;;;5.23;4.73;;;19.90;99.90;;;;;;485131;244;28705;-75
2023/08/19 06:01:16;;;;;;;8.07;5.17;;;20.00;99.90;;;;;;485128;244;28819;-74
2023/08/19 06:03:17;;;;;;;5.33;4.23;;;20.10;99.90;;;;;;485131;244;29162;-74
2023/08/19 06:05:19;;;;;;;6.00;4.80;;;20.30;99.90;;;;;;485125;244;29155;-74
2023/08/19 06:07:25;;;;;;;4.80;4.40;;;20.40;99.90;;;;;;485120;244;29171;-74
2023/08/19 06:09:21;;;;;;;9.17;4.87;;;20.40;99.90;;;;;;484839;244;28736;-74
2023/08/19 06:11:22;;;;;;;5.03;4.43;;;20.60;99.90;;;;;;485130;244;28795;-74
2023/08/19 06:13:24;;;;;;;4.73;4.30;;;20.60;99.90;;;;;;485127;244;28729;-74
2023/08/19 06:15:25;;;;;;;5.90;4.63;;;20.80;99.90;;;;;;485137;244;28718;-74
2023/08/19 06:17:26;;;;;;;6.47;5.30;;;20.80;99.90;;;;;;485115;244;28721;-74
2023/08/19 06:19:27;;;;;;;12.33;5.40;;;20.80;99.90;;;;;;485122;244;28700;-74
2023/08/19 06:21:29;;;;;;;14.40;6.33;;;20.80;99.90;;;;;;485129;244;28831;-74
2023/08/19 06:23:30;;;;;;;7.50;4.97;;;20.90;99.90;;;;;;485135;244;28723;-73
2023/08/19 06:25:31;;;;;;;7.20;4.20;;;20.90;99.90;;;;;;484954;244;29176;-74
2023/08/19 06:27:33;;;;;;;5.57;5.07;;;20.90;99.90;;;;;;485126;244;29278;-74
2023/08/19 06:29:34;;;;;;;8.67;4.83;;;21.00;99.90;;;;;;485115;244;29276;-74
2023/08/19 06:31:35;;;;;;;6.53;4.87;;;21.00;99.90;;;;;;485111;244;28738;-73
2023/08/19 06:33:36;;;;;;;8.57;5.00;;;21.30;99.90;;;;;;485096;244;28724;-74
2023/08/19 06:35:38;;;;;;;9.03;5.00;;;21.50;99.90;;;;;;485122;244;28810;-74
2023/08/19 06:37:39;;;;;;;5.63;4.90;;;21.70;99.90;;;;;;485120;244;28711;-74
2023/08/19 06:39:40;;;;;;;13.80;4.53;;;21.80;99.90;;;;;;485134;243;28777;-75
2023/08/19 06:41:41;;;;;;;6.53;4.90;;;21.90;99.90;;;;;;485120;244;28699;-75
2023/08/19 06:43:43;;;;;;;7.33;5.20;;;22.00;99.90;;;;;;485118;244;28691;-76
2023/08/19 06:45:45;;;;;;;5.40;4.63;;;22.20;99.90;;;;;;485115;244;28715;-75
2023/08/19 06:47:46;;;;;;;10.23;5.10;;;22.40;99.90;;;;;;485104;244;29244;-80
2023/08/19 06:49:47;;;;;;;7.73;4.83;;;22.60;99.90;;;;;;485132;244;29271;-75
2023/08/19 06:51:48;;;;;;;7.00;5.10;;;22.80;99.90;;;;;;485118;244;29167;-73
2023/08/19 06:53:50;;;;;;;7.17;5.60;;;23.00;99.90;;;;;;485095;244;28897;-75
2023/08/19 06:55:51;;;;;;;7.40;4.87;;;23.10;99.90;;;;;;485130;244;28711;-74
2023/08/19 06:57:52;;;;;;;8.23;5.07;;;23.40;99.90;;;;;;485118;244;28712;-76
2023/08/19 06:59:53;;;;;;;7.87;4.27;;;23.60;99.90;;;;;;485129;244;28790;-74
2023/08/19 07:01:55;;;;;;;5.90;4.60;;;23.70;99.90;;;;;;485109;244;28707;-74
2023/08/19 07:03:56;;;;;;;6.30;4.50;;;23.80;99.90;;;;;;485120;244;28715;-75
2023/08/19 07:05:57;;;;;;;6.40;4.67;;;23.90;99.90;;;;;;485113;244;28821;-75
2023/08/19 07:07:58;;;;;;;6.83;4.53;;;24.00;99.90;;;;;;485122;244;28942;-77
2023/08/19 07:10:00;;;;;;;5.70;4.40;;;24.00;99.90;;;;;;485122;244;28826;-74
2023/08/19 07:12:02;;;;;;;6.30;4.80;;;24.10;99.90;;;;;;485116;244;29170;-76
2023/08/19 07:14:02;;;;;;;10.03;4.40;;;24.10;99.90;;;;;;485092;244;29210;-75
2023/08/19 07:16:03;;;;;;;9.33;4.60;;;24.20;99.90;;;;;;485108;244;29194;-75
2023/08/19 07:18:05;;;;;;;6.87;4.80;;;24.20;99.90;;;;;;485086;244;28790;-75
2023/08/19 07:20:06;;;;;;;6.73;5.00;;;24.30;99.90;;;;;;485109;244;28707;-75
2023/08/19 07:22:07;;;;;;;11.33;4.77;;;24.30;99.90;;;;;;485110;244;28716;-76
2023/08/19 07:24:08;;;;;;;7.27;4.97;;;24.30;99.90;;;;;;485108;244;28738;-75
2023/08/19 07:26:10;;;;;;;4.90;4.40;;;24.30;99.90;;;;;;485094;244;28723;-76
2023/08/19 07:28:11;;;;;;;6.50;4.63;;;24.30;99.90;;;;;;485101;244;28722;-76
2023/08/19 07:30:12;;;;;;;4.70;4.10;;;24.40;99.90;;;;;;485114;244;28730;-74
2023/08/19 07:32:14;;;;;;;4.67;4.27;;;24.40;99.90;;;;;;485107;244;28722;-75
2023/08/19 07:34:15;;;;;;;5.33;4.27;;;24.50;99.90;;;;;;485108;244;29176;-75
2023/08/19 07:36:16;;;;;;;8.17;5.13;;;24.50;99.90;;;;;;485110;244;29284;-75
2023/08/19 07:38:18;;;;;;;9.30;4.77;;;24.50;99.90;;;;;;485102;244;29197;-75
2023/08/19 07:40:19;;;;;;;7.53;4.50;;;24.60;99.90;;;;;;489108;242;28831;-73
2023/08/19 07:42:20;;;;;;;9.20;4.20;;;24.60;99.90;;;;;;486207;241;28707;-75
2023/08/19 07:44:21;;;;;;;9.67;4.43;;;24.70;99.90;;;;;;485116;244;28790;-75
2023/08/19 07:46:22;;;;;;;5.23;4.00;;;24.70;99.90;;;;;;485101;244;28719;-75
2023/08/19 07:48:24;;;;;;;5.77;4.20;;;24.70;99.90;;;;;;485117;244;28796;-76
2023/08/19 07:50:25;;;;;;;4.00;3.57;;;24.80;99.90;;;;;;485112;244;28778;-76
2023/08/19 07:52:26;;;;;;;4.23;3.83;;;24.80;99.90;;;;;;485109;244;28706;-75
2023/08/19 07:54:27;;;;;;;4.83;4.23;;;24.80;99.90;;;;;;485111;244;28853;-75
2023/08/19 07:56:29;;;;;;;7.23;4.37;;;24.80;99.90;;;;;;485109;244;28794;-74
2023/08/19 07:58:30;;;;;;;8.43;4.30;;;24.90;99.90;;;;;;485067;244;29251;-74
2023/08/19 08:00:31;;;;;;;7.27;4.40;;;24.80;99.90;;;;;;485096;244;29167;-75
2023/08/19 08:02:32;;;;;;;9.60;5.10;;;24.90;99.90;;;;;;485101;244;29169;-74
2023/08/19 08:04:34;;;;;;;5.43;4.00;;;25.00;99.90;;;;;;485103;244;28803;-74
2023/08/19 08:06:35;;;;;;;7.03;4.50;;;24.90;99.90;;;;;;485086;244;28694;-74
2023/08/19 08:08:36;;;;;;;5.00;3.87;;;25.00;99.90;;;;;;485106;244;28787;-75
2023/08/19 08:10:37;;;;;;;4.30;4.00;;;25.10;99.90;;;;;;485107;244;28788;-74
2023/08/19 08:12:39;;;;;;;7.77;4.13;;;25.10;99.90;;;;;;485100;245;28782;-74
2023/08/19 08:14:40;;;;;;;5.60;4.63;;;25.20;99.90;;;;;;485102;244;28726;-74
2023/08/19 08:16:41;;;;;;;6.30;4.40;;;25.20;99.90;;;;;;485098;244;28704;-74
2023/08/19 08:18:42;;;;;;;4.77;4.37;;;25.30;99.90;;;;;;485119;244;28726;-74
2023/08/19 08:20:44;;;;;;;7.17;4.30;;;25.40;99.90;;;;;;485111;244;28713;-74
2023/08/19 08:22:45;;;;;;;4.00;3.70;;;25.60;99.90;;;;;;485155;244;29175;-74
2023/08/19 08:24:47;;;;;;;7.23;4.40;;;25.60;99.90;;;;;;485106;244;29293;-74
2023/08/19 08:26:47;;;;;;;5.57;4.70;;;25.70;99.90;;;;;;485059;244;29253;-74
2023/08/19 08:28:49;;;;;;;7.57;5.23;;;25.80;99.90;;;;;;485105;244;29185;-74
2023/08/19 08:30:50;;;;;;;6.93;4.70;;;25.80;99.90;;;;;;485112;244;28780;-75
2023/08/19 08:32:54;;;;;;;6.87;4.13;;;26.00;99.90;;;;;;485094;244;28785;-75
2023/08/19 08:34:55;;;;;;;8.10;4.97;;;26.10;99.90;;;;;;485098;244;28715;-74
2023/08/19 08:36:56;;;;;;;7.10;4.47;;;26.10;99.90;;;;;;485099;244;28725;-74
2023/08/19 08:38:58;;;;;;;4.83;4.20;;;26.20;99.90;;;;;;485108;244;28801;-74
2023/08/19 08:41:00;;;;;;;4.87;4.33;;;26.20;99.90;;;;;;485108;244;29177;-74
2023/08/19 08:43:02;;;;;;;4.67;3.97;;;26.30;99.90;;;;;;485129;244;28714;-75
2023/08/19 08:45:02;;;;;;;5.93;4.60;;;26.40;99.90;;;;;;485113;244;28713;-75
2023/08/19 08:47:04;;;;;;;5.57;4.27;;;26.40;99.90;;;;;;485106;244;28777;-74
2023/08/19 08:49:05;;;;;;;6.40;3.77;;;26.50;99.90;;;;;;485152;244;29106;-74
2023/08/19 08:51:06;;;;;;;6.33;3.80;;;26.70;99.90;;;;;;485066;244;29279;-74
2023/08/19 08:53:08;;;;;;;5.00;4.33;;;26.80;99.90;;;;;;485088;244;29153;-74
2023/08/19 08:55:09;;;;;;;7.60;4.20;;;26.90;99.90;;;;;;485101;244;29278;-74
2023/08/19 08:57:10;;;;;;;9.03;4.33;;;27.10;99.90;;;;;;485094;244;28795;-74
2023/08/19 08:59:11;;;;;;;8.03;4.70;;;27.20;99.90;;;;;;485104;244;28723;-74
2023/08/19 09:01:13;;;;;;;5.10;3.97;;;27.20;99.90;;;;;;485104;244;28731;-74
2023/08/19 09:03:14;;;;;;;4.63;4.13;;;27.20;99.90;;;;;;485073;244;28715;-74
2023/08/19 09:05:15;;;;;;;4.47;4.07;;;27.10;99.90;;;;;;485090;244;28770;-74
2023/08/19 09:07:16;;;;;;;4.40;4.00;;;27.10;99.90;;;;;;485099;244;28710;-74
2023/08/19 09:09:18;;;;;;;6.87;4.53;;;27.00;99.90;;;;;;485103;244;28728;-74
2023/08/19 09:11:19;;;;;;;4.53;4.10;;;26.90;99.90;;;;;;485097;244;28715;-74
2023/08/19 09:13:20;;;;;;;6.30;4.40;;;26.90;99.90;;;;;;485095;244;29194;-74
2023/08/19 09:15:21;;;;;;;9.43;4.03;;;26.70;99.90;;;;;;485114;244;29182;-75
2023/08/19 09:17:22;;;;;;;6.63;4.40;;;26.70;99.90;;;;;;485090;244;29289;-74
2023/08/19 09:19:24;;;;;;;5.10;4.57;;;26.60;99.90;;;;;;485099;244;28806;-74
2023/08/19 09:21:25;;;;;;;4.93;4.47;;;26.60;99.90;;;;;;485091;244;28725;-74
2023/08/19 09:23:26;;;;;;;4.80;4.33;;;26.60;99.90;;;;;;485106;244;28785;-75
2023/08/19 09:25:27;;;;;;;4.43;4.03;;;26.50;99.90;;;;;;485090;244;28795;-75
2023/08/19 09:27:29;;;;;;;4.47;4.07;;;26.50;99.90;;;;;;485087;244;28707;-74
2023/08/19 09:29:30;;;;;;;5.43;4.87;;;26.50;99.90;;;;;;485091;244;28814;-74
2023/08/19 09:31:31;;;;;;;5.17;4.00;;;26.60;99.90;;;;;;485094;244;28713;-75
2023/08/19 09:33:32;;;;;;;5.23;3.90;;;26.60;99.90;;;;;;485096;244;28727;-74
2023/08/19 09:35:34;;;;;;;4.63;4.23;;;26.60;99.90;;;;;;485094;244;28736;-74
2023/08/19 09:37:35;;;;;;;4.97;4.47;;;26.60;99.90;;;;;;485089;244;29181;-74
2023/08/19 09:39:36;;;;;;;6.80;4.23;;;26.60;99.90;;;;;;485092;244;29269;-76
2023/08/19 09:41:37;;;;;;;5.30;4.53;;;26.60;99.90;;;;;;485086;244;29202;-75
2023/08/19 09:43:39;;;;;;;8.60;4.17;;;26.50;99.90;;;;;;485102;244;29161;-75
2023/08/19 09:45:40;;;;;;;5.00;4.03;;;26.60;99.90;;;;;;485087;244;28742;-74
2023/08/19 09:47:41;;;;;;;7.97;4.70;;;26.60;99.90;;;;;;485096;244;28714;-74
2023/08/19 09:49:42;;;;;;;5.97;3.80;;;26.70;99.90;;;;;;485098;244;28723;-74
2023/08/19 09:51:44;;;;;;;4.40;4.00;;;26.70;99.90;;;;;;485089;244;28720;-74
2023/08/19 09:53:45;;;;;;;8.27;4.63;;;26.80;99.90;;;;;;485098;244;28718;-77
2023/08/19 09:55:46;;;;;;;4.63;4.17;;;26.80;99.90;;;;;;485095;244;28711;-74
2023/08/19 09:57:47;;;;;;;6.97;4.70;;;26.80;99.90;;;;;;485066;244;28772;-75
2023/08/19 09:59:49;;;;;;;4.93;4.30;;;26.90;99.90;;;;;;485100;244;28794;-74
2023/08/19 10:01:51;;;;;;;5.67;5.00;;;26.80;99.90;;;;;;484652;243;29206;-74
2023/08/19 10:03:51;;;;;;;9.60;4.70;;;26.80;99.90;;;;;;484560;245;29207;-74
2023/08/19 10:05:52;;;;;;;11.70;4.60;;;26.80;99.90;;;;;;484864;245;29366;-74
2023/08/19 10:07:54;;;;;;;6.50;4.23;;;27.00;99.90;;;;;;485074;244;28802;-74
2023/08/19 10:09:55;;;;;;;4.87;4.33;;;27.10;99.90;;;;;;485086;244;28789;-74
2023/08/19 10:11:56;;;;;;;13.50;5.27;;;27.20;99.90;;;;;;485096;244;28798;-74
2023/08/19 10:13:57;;;;;;;6.03;4.47;;;27.20;99.90;;;;;;485096;244;28729;-75
2023/08/19 10:15:59;;;;;;;5.33;4.67;;;27.20;99.90;;;;;;485101;244;28729;-74
2023/08/19 10:18:00;;;;;;;8.50;4.87;;;27.30;99.90;;;;;;485091;244;28777;-74
2023/08/19 10:20:02;;;;;;;7.33;4.60;;;27.20;99.90;;;;;;485092;244;28779;-75
2023/08/19 10:22:02;;;;;;;4.90;4.40;;;27.30;99.90;;;;;;485099;244;28731;-75
2023/08/19 10:24:04;;;;;;;7.07;4.23;;;27.40;99.90;;;;;;485098;244;28722;-74
2023/08/19 10:26:05;;;;;;;6.43;4.23;;;27.50;99.90;;;;;;485089;244;29291;-74
2023/08/19 10:28:06;;;;;;;5.43;4.37;;;27.50;99.90;;;;;;485080;244;29175;-74
2023/08/19 10:30:07;;;;;;;4.93;4.53;;;27.60;99.90;;;;;;485104;244;29177;-75